Time;durP1;ratioP1;P1;durP2;ratioP2;P2;SDS_P1;SDS_P2;PMS_P1;PMS_P2;Temp;Humidity;BMP_temperature;BMP_pressure;BME280_temperature;BME280_humidity;BME280_pressure;Samples;Min_cycle;Max_cycle;Signal;HPM_P1;HPM_P2
2022/01/04 00:00:37;;;;;;;;;;;9.50;99.90;;;;;;6211468;23;19911;-93
2022/01/04 00:03:10;;;;;;;;;;;9.40;99.90;;;;;;6211851;23;20051;-91
2022/01/04 00:05:36;;;;;;;;;;;9.30;99.90;;;;;;6211748;23;19926;-91
2022/01/04 00:08:04;;;;;;;;;;;9.30;99.90;;;;;;6212248;23;19904;-90
2022/01/04 00:10:35;;;;;;;;;;;9.30;99.90;;;;;;6211561;23;20276;-90
2022/01/04 00:15:45;;;;;;;;;;;9.30;99.90;;;;;;6236228;23;19914;-91
2022/01/04 00:18:11;;;;;;;;;;;9.30;99.90;;;;;;6238162;23;19916;-91
2022/01/04 00:20:37;;;;;;;;;;;9.30;99.90;;;;;;6239558;23;19915;-91
2022/01/04 00:23:05;;;;;;;;;;;9.20;99.90;;;;;;6220727;23;20225;-91
2022/01/04 00:25:36;;;;;;;;;;;9.30;99.90;;;;;;6213730;23;19908;-91
2022/01/04 00:28:06;;;;;;;;;;;9.30;99.90;;;;;;6211349;23;19911;-91
2022/01/04 00:30:35;;;;;;;;;;;9.30;99.90;;;;;;6211297;23;20240;-91
2022/01/04 00:33:06;;;;;;;;;;;9.40;99.90;;;;;;6211627;23;20328;-90
2022/01/04 00:35:35;;;;;;;;;;;9.30;99.90;;;;;;6211110;23;19939;-92
2022/01/04 00:38:00;;;;;;;;;;;9.30;99.90;;;;;;6211910;23;19904;-90
2022/01/04 00:40:26;;;;;;;;;;;9.10;99.90;;;;;;6211517;23;19990;-90
2022/01/04 00:42:55;;;;;;;;;;;9.10;99.90;;;;;;6210911;23;19912;-90
2022/01/04 00:45:24;;;;;;;;;;;9.20;99.90;;;;;;6211281;23;20316;-91
2022/01/04 00:50:27;;;;;;;;;;;9.20;99.90;;;;;;6212781;23;19904;-92
2022/01/04 00:53:01;;;;;;;;;;;9.20;99.90;;;;;;6212753;23;19910;-91
2022/01/04 00:55:27;;;;;;;;;;;9.30;99.90;;;;;;6210809;23;19952;-90
2022/01/04 00:57:54;;;;;;;;;;;9.30;99.90;;;;;;6210769;23;20351;-91
2022/01/04 01:00:22;;;;;;;;;;;9.20;99.90;;;;;;6211272;23;19907;-91
2022/01/04 01:02:48;;;;;;;;;;;9.20;99.90;;;;;;6211288;23;19904;-89
2022/01/04 01:05:14;;;;;;;;;;;9.20;99.90;;;;;;6211620;23;19910;-90
2022/01/04 01:07:40;;;;;;;;;;;9.30;99.90;;;;;;6211262;23;20313;-90
2022/01/04 01:10:30;;;;;;;;;;;9.30;99.90;;;;;;6210735;23;20188;-92
2022/01/04 01:12:58;;;;;;;;;;;9.10;99.90;;;;;;6212585;23;20328;-91
2022/01/04 01:15:26;;;;;;;;;;;9.10;99.90;;;;;;6211394;23;20396;-89
2022/01/04 01:17:54;;;;;;;;;;;9.10;99.90;;;;;;6211680;23;20038;-90
2022/01/04 01:20:22;;;;;;;;;;;9.10;99.90;;;;;;6211012;23;19910;-92
2022/01/04 01:22:50;;;;;;;;;;;9.00;99.90;;;;;;6211255;23;19904;-90
2022/01/04 01:28:36;;;;;;;;;;;9.10;99.90;;;;;;6206887;23;19904;-91
2022/01/04 01:30:53;;;;;;;;;;;9.10;99.90;;;;;;6207967;23;19904;-89
2022/01/04 01:33:19;;;;;;;;;;;9.00;99.90;;;;;;6210587;23;20387;-89
2022/01/04 01:35:50;;;;;;;;;;;9.00;99.90;;;;;;6211695;23;19919;-89
2022/01/04 01:38:17;;;;;;;;;;;8.90;99.90;;;;;;6211395;23;19910;-91
2022/01/04 01:40:43;;;;;;;;;;;8.90;99.90;;;;;;6211472;23;19904;-91
2022/01/04 01:43:11;;;;;;;;;;;8.70;99.90;;;;;;6210483;23;19915;-90
2022/01/04 01:45:44;;;;;;;;;;;8.80;99.90;;;;;;6210682;23;19995;-90
2022/01/04 01:48:10;;;;;;;;;;;8.80;99.90;;;;;;6212378;23;19986;-90
2022/01/04 01:50:36;;;;;;;;;;;8.90;99.90;;;;;;6210836;23;19904;-91
2022/01/04 01:53:04;;;;;;;;;;;8.90;99.90;;;;;;6210877;23;19994;-91
2022/01/04 01:55:30;;;;;;;;;;;8.90;99.90;;;;;;6210791;23;20225;-90
2022/01/04 01:57:56;;;;;;;;;;;9.10;99.90;;;;;;6210445;23;19990;-90
2022/01/04 02:00:42;;;;;;;;;;;9.00;99.90;;;;;;6210359;23;19904;-90
2022/01/04 02:03:09;;;;;;;;;;;9.10;99.90;;;;;;6209505;23;20179;-91
2022/01/04 02:05:35;;;;;;;;;;;8.90;99.90;;;;;;6210914;23;19904;-89
2022/01/04 02:08:12;;;;;;;;;;;8.90;99.90;;;;;;6210933;23;20217;-90
2022/01/04 02:10:38;;;;;;;;;;;9.00;99.90;;;;;;6210397;23;19946;-92
2022/01/04 02:13:04;;;;;;;;;;;9.00;99.90;;;;;;6210631;23;19904;-91
2022/01/04 02:15:33;;;;;;;;;;;9.00;99.90;;;;;;6210857;23;19943;-90
2022/01/04 02:17:59;;;;;;;;;;;9.00;99.90;;;;;;6210575;23;20399;-91
2022/01/04 02:20:26;;;;;;;;;;;8.90;99.90;;;;;;6210430;23;19904;-90
2022/01/04 02:22:54;;;;;;;;;;;8.80;99.90;;;;;;6210501;23;19911;-90
2022/01/04 02:25:19;;;;;;;;;;;8.90;99.90;;;;;;6210202;23;19904;-89
2022/01/04 02:27:48;;;;;;;;;;;8.90;99.90;;;;;;6211280;23;20230;-91
2022/01/04 02:30:20;;;;;;;;;;;9.00;99.90;;;;;;6211600;23;20284;-91
2022/01/04 02:32:47;;;;;;;;;;;9.00;99.90;;;;;;6211164;23;19904;-92
2022/01/04 02:35:13;;;;;;;;;;;9.10;99.90;;;;;;6210336;23;20290;-89
2022/01/04 02:37:42;;;;;;;;;;;9.00;99.90;;;;;;6210556;23;20283;-89
2022/01/04 02:40:08;;;;;;;;;;;9.10;99.90;;;;;;6210333;23;20291;-91
2022/01/04 02:42:38;;;;;;;;;;;9.10;99.90;;;;;;6212156;23;19912;-90
2022/01/04 02:45:04;;;;;;;;;;;9.10;99.90;;;;;;6212071;23;19904;-92
2022/01/04 02:47:59;;;;;;;;;;;9.10;99.90;;;;;;6234020;23;19915;-93
2022/01/04 02:50:56;;;;;;;;;;;9.10;99.90;;;;;;6219277;23;19896;-91
2022/01/04 02:56:06;;;;;;;;;;;9.10;99.90;;;;;;6219410;23;20042;-92
2022/01/04 02:59:01;;;;;;;;;;;9.10;99.90;;;;;;6212219;23;19911;-90
2022/01/04 03:01:49;;;;;;;;;;;9.10;99.90;;;;;;6212269;23;19911;-89
2022/01/04 03:04:15;;;;;;;;;;;9.10;99.90;;;;;;6212306;23;20344;-90
2022/01/04 03:06:43;;;;;;;;;;;9.10;99.90;;;;;;6212321;23;19904;-91
2022/01/04 03:09:29;;;;;;;;;;;8.80;99.90;;;;;;6214054;23;20325;-90
2022/01/04 03:12:04;;;;;;;;;;;9.10;99.90;;;;;;6213313;23;20333;-90
2022/01/04 03:14:30;;;;;;;;;;;9.20;99.90;;;;;;6211800;23;19908;-91
2022/01/04 03:17:12;;;;;;;;;;;9.10;99.90;;;;;;6212053;23;20351;-91
2022/01/04 03:19:42;;;;;;;;;;;9.10;99.90;;;;;;6211953;23;19904;-91
2022/01/04 03:22:08;;;;;;;;;;;9.20;99.90;;;;;;6212372;23;19942;-93
2022/01/04 03:24:35;;;;;;;;;;;9.20;99.90;;;;;;6213752;23;19904;-92
2022/01/04 03:27:01;;;;;;;;;;;9.20;99.90;;;;;;6212254;23;20276;-89
2022/01/04 03:29:34;;;;;;;;;;;9.20;99.90;;;;;;6211756;23;19911;-91
2022/01/04 03:31:59;;;;;;;;;;;9.20;99.90;;;;;;6211942;23;20245;-92
2022/01/04 03:34:25;;;;;;;;;;;9.20;99.90;;;;;;6212117;23;20329;-92
2022/01/04 03:36:53;;;;;;;;;;;9.10;99.90;;;;;;6212567;23;19944;-92
2022/01/04 03:39:22;;;;;;;;;;;9.20;99.90;;;;;;6213107;23;19912;-91
2022/01/04 03:41:51;;;;;;;;;;;9.20;99.90;;;;;;6212971;23;20276;-92
2022/01/04 03:44:22;;;;;;;;;;;9.50;99.90;;;;;;6212801;23;19904;-91
2022/01/04 03:46:57;;;;;;;;;;;9.20;99.90;;;;;;6213067;23;19926;-91
2022/01/04 03:49:23;;;;;;;;;;;9.20;99.90;;;;;;6211645;23;19987;-92
2022/01/04 03:52:01;;;;;;;;;;;;;;;;;;;;;
2022/01/04 03:54:28;;;;;;;;;;;9.20;99.90;;;;;;6212797;23;20408;-92
2022/01/04 03:57:14;;;;;;;;;;;9.20;99.90;;;;;;6211698;23;19911;-91
2022/01/04 03:59:40;;;;;;;;;;;9.20;99.90;;;;;;6213519;23;19915;-90
2022/01/04 04:02:10;;;;;;;;;;;9.20;99.90;;;;;;6211806;23;19904;-91
2022/01/04 04:04:36;;;;;;;;;;;9.20;99.90;;;;;;6211560;23;19927;-91
2022/01/04 04:07:03;;;;;;;;;;;9.20;99.90;;;;;;6213240;23;19904;-90
2022/01/04 04:09:34;;;;;;;;;;;9.20;99.90;;;;;;6211360;23;20341;-92
2022/01/04 04:12:08;;;;;;;;;;;9.20;99.90;;;;;;6211451;23;19919;-91
2022/01/04 04:14:41;;;;;;;;;;;9.20;99.90;;;;;;6211476;23;19907;-92
2022/01/04 04:17:09;;;;;;;;;;;9.20;99.90;;;;;;6211743;23;20287;-91
2022/01/04 04:19:37;;;;;;;;;;;9.20;99.90;;;;;;6211067;23;19904;-91
2022/01/04 04:22:03;;;;;;;;;;;9.30;99.90;;;;;;6202097;23;19904;-91
2022/01/04 04:24:28;;;;;;;;;;;9.30;99.90;;;;;;6211546;23;19942;-91
2022/01/04 04:26:54;;;;;;;;;;;9.20;99.90;;;;;;6211654;23;19966;-91
2022/01/04 04:29:20;;;;;;;;;;;9.30;99.90;;;;;;6212001;23;20248;-90
2022/01/04 04:32:26;;;;;;;;;;;9.30;99.90;;;;;;6211609;23;19907;-92
2022/01/04 04:34:51;;;;;;;;;;;9.30;99.90;;;;;;6212449;23;19935;-90
2022/01/04 04:37:17;;;;;;;;;;;9.20;99.90;;;;;;6210479;23;20325;-91
2022/01/04 04:39:42;;;;;;;;;;;9.20;99.90;;;;;;6210848;23;19958;-90
2022/01/04 04:42:08;;;;;;;;;;;9.20;99.90;;;;;;6210265;23;19911;-91
2022/01/04 04:44:44;;;;;;;;;;;9.30;99.90;;;;;;6211133;23;20256;-91
2022/01/04 04:47:12;;;;;;;;;;;9.30;99.90;;;;;;6211157;23;20343;-91
2022/01/04 04:49:37;;;;;;;;;;;9.40;99.90;;;;;;6210327;23;19950;-92
2022/01/04 04:52:03;;;;;;;;;;;9.30;99.90;;;;;;6210890;23;19946;-90
2022/01/04 04:54:29;;;;;;;;;;;9.20;99.90;;;;;;6210934;23;19912;-90
2022/01/04 04:56:54;;;;;;;;;;;9.20;99.90;;;;;;6214233;23;19904;-92
2022/01/04 04:59:20;;;;;;;;;;;9.30;99.90;;;;;;6211678;23;19918;-91
2022/01/04 05:01:46;;;;;;;;;;;9.40;99.90;;;;;;6210186;23;20568;-91
2022/01/04 05:04:11;;;;;;;;;;;9.40;99.90;;;;;;6211617;23;19904;-89
2022/01/04 05:06:37;;;;;;;;;;;9.60;99.90;;;;;;6213342;23;20214;-93
2022/01/04 05:09:02;;;;;;;;;;;9.70;99.90;;;;;;6211582;23;19953;-89
2022/01/04 05:11:29;;;;;;;;;;;9.70;99.90;;;;;;6209938;23;19904;-92
2022/01/04 05:13:55;;;;;;;;;;;9.70;99.90;;;;;;6210562;23;20170;-91
2022/01/04 05:16:21;;;;;;;;;;;9.70;99.90;;;;;;6211473;23;19908;-91
2022/01/04 05:18:46;;;;;;;;;;;9.60;99.90;;;;;;6212215;23;20102;-90
2022/01/04 05:21:12;;;;;;;;;;;9.80;99.90;;;;;;6223069;23;19904;-89
2022/01/04 05:23:37;;;;;;;;;;;9.80;99.90;;;;;;6234854;23;19911;-89
2022/01/04 05:26:06;;;;;;;;;;;9.90;99.90;;;;;;6239520;23;19896;-92
2022/01/04 05:28:31;;;;;;;;;;;9.90;99.90;;;;;;6227273;23;19914;-90
2022/01/04 05:30:57;;;;;;;;;;;9.90;99.90;;;;;;6218602;23;19936;-92
2022/01/04 05:33:22;;;;;;;;;;;9.90;99.90;;;;;;6211015;23;19910;-90
2022/01/04 05:35:48;;;;;;;;;;;9.90;99.90;;;;;;6211811;23;19916;-92
2022/01/04 05:38:14;;;;;;;;;;;9.90;99.90;;;;;;6210420;23;19904;-90
2022/01/04 05:40:40;;;;;;;;;;;10.00;99.90;;;;;;6210192;23;19939;-92
2022/01/04 05:43:05;;;;;;;;;;;10.00;99.90;;;;;;6209844;23;20342;-91
2022/01/04 05:45:31;;;;;;;;;;;10.00;99.90;;;;;;6211482;23;20341;-92
2022/01/04 05:47:57;;;;;;;;;;;10.00;99.90;;;;;;6212599;23;19912;-92
2022/01/04 05:50:23;;;;;;;;;;;10.00;99.90;;;;;;6211691;23;20214;-91
2022/01/04 05:52:48;;;;;;;;;;;10.00;99.90;;;;;;6211397;23;20139;-90
2022/01/04 05:55:14;;;;;;;;;;;10.10;99.90;;;;;;6211636;23;19919;-91
2022/01/04 05:57:39;;;;;;;;;;;10.00;99.90;;;;;;6210365;23;20213;-91
2022/01/04 06:00:06;;;;;;;;;;;10.10;99.90;;;;;;6211150;23;19982;-91
2022/01/04 06:02:31;;;;;;;;;;;10.00;99.90;;;;;;6211374;23;19904;-92
2022/01/04 06:04:57;;;;;;;;;;;10.00;99.90;;;;;;6210787;23;19954;-88
2022/01/04 06:07:22;;;;;;;;;;;10.00;99.90;;;;;;6212908;23;19904;-91
2022/01/04 06:09:51;;;;;;;;;;;10.00;99.90;;;;;;6212114;23;19911;-90
2022/01/04 06:14:54;;;;;;;;;;;10.00;99.90;;;;;;6209853;23;20006;-90
2022/01/04 06:17:23;;;;;;;;;;;10.00;99.90;;;;;;6208556;23;19920;-92
2022/01/04 06:19:49;;;;;;;;;;;9.90;99.90;;;;;;6208491;23;19996;-91
2022/01/04 06:22:15;;;;;;;;;;;9.80;99.90;;;;;;6209949;23;20236;-92
2022/01/04 06:24:40;;;;;;;;;;;9.70;99.90;;;;;;6211575;23;19908;-90
2022/01/04 06:27:10;;;;;;;;;;;9.60;99.90;;;;;;6215783;23;19904;-92
2022/01/04 06:29:37;;;;;;;;;;;9.60;99.90;;;;;;6217020;23;19904;-91
2022/01/04 06:32:04;;;;;;;;;;;9.50;99.90;;;;;;6219221;23;19904;-90
2022/01/04 06:34:29;;;;;;;;;;;9.60;99.90;;;;;;6221130;23;20083;-92
2022/01/04 06:36:55;;;;;;;;;;;9.60;99.90;;;;;;6221651;23;19904;-89
2022/01/04 06:39:20;;;;;;;;;;;9.60;99.90;;;;;;6222643;23;20244;-92
2022/01/04 06:41:46;;;;;;;;;;;9.60;99.90;;;;;;6218564;23;19915;-93
2022/01/04 06:44:11;;;;;;;;;;;9.50;99.90;;;;;;6218095;23;19904;-91
2022/01/04 06:46:41;;;;;;;;;;;9.50;99.90;;;;;;6210838;23;19904;-91
2022/01/04 06:49:07;;;;;;;;;;;9.50;99.90;;;;;;6216719;23;19951;-91
2022/01/04 06:51:34;;;;;;;;;;;9.50;99.90;;;;;;6219837;23;19904;-90
2022/01/04 06:53:59;;;;;;;;;;;9.40;99.90;;;;;;6219302;23;19915;-92
2022/01/04 06:56:25;;;;;;;;;;;9.40;99.90;;;;;;6217663;23;19908;-88
2022/01/04 06:58:52;;;;;;;;;;;9.40;99.90;;;;;;6218308;23;20075;-89
2022/01/04 07:01:17;;;;;;;;;;;9.40;99.90;;;;;;6217461;23;19911;-91
2022/01/04 07:03:44;;;;;;;;;;;9.40;99.90;;;;;;6202853;23;19939;-91
2022/01/04 07:06:10;;;;;;;;;;;9.40;99.90;;;;;;6209555;23;20481;-89
2022/01/04 07:08:35;;;;;;;;;;;9.40;99.90;;;;;;6214069;23;19904;-90
2022/01/04 07:11:01;;;;;;;;;;;9.40;99.90;;;;;;6220940;23;19924;-89
2022/01/04 07:13:26;;;;;;;;;;;9.40;99.90;;;;;;6223080;23;19908;-90
2022/01/04 07:15:52;;;;;;;;;;;9.40;99.90;;;;;;6227619;23;19923;-92
2022/01/04 07:18:18;;;;;;;;;;;9.40;99.90;;;;;;6228679;23;19934;-91
2022/01/04 07:20:43;;;;;;;;;;;9.40;99.90;;;;;;6226839;23;19904;-91
2022/01/04 07:23:10;;;;;;;;;;;9.40;99.90;;;;;;6225357;23;19911;-90
2022/01/04 07:25:35;;;;;;;;;;;9.40;99.90;;;;;;6210925;23;19904;-89
2022/01/04 07:28:01;;;;;;;;;;;9.40;99.90;;;;;;6217293;23;19904;-89
2022/01/04 07:30:26;;;;;;;;;;;9.40;99.90;;;;;;6216476;23;19904;-89
2022/01/04 07:32:52;;;;;;;;;;;9.40;99.90;;;;;;6216798;23;20362;-88
2022/01/04 07:35:17;;;;;;;;;;;9.40;99.90;;;;;;6215858;23;19911;-88
2022/01/04 07:37:43;;;;;;;;;;;9.40;99.90;;;;;;6213738;23;20339;-90
2022/01/04 07:40:09;;;;;;;;;;;9.40;99.90;;;;;;6213046;23;20329;-88
2022/01/04 07:42:34;;;;;;;;;;;9.40;99.90;;;;;;6214874;23;19912;-88
2022/01/04 07:45:02;;;;;;;;;;;9.40;99.90;;;;;;6213998;23;19904;-90
2022/01/04 07:47:27;;;;;;;;;;;9.40;99.90;;;;;;6216699;23;19904;-89
2022/01/04 07:49:53;;;;;;;;;;;9.50;99.90;;;;;;6213022;23;19915;-88
2022/01/04 07:52:19;;;;;;;;;;;9.50;99.90;;;;;;6215411;23;20072;-90
2022/01/04 07:54:44;;;;;;;;;;;9.50;99.90;;;;;;6222783;23;19935;-87
2022/01/04 07:57:10;;;;;;;;;;;9.50;99.90;;;;;;6230151;23;19912;-88
2022/01/04 07:59:35;;;;;;;;;;;9.50;99.90;;;;;;6235369;23;19888;-89
2022/01/04 08:02:01;;;;;;;;;;;9.50;99.90;;;;;;6229512;23;19904;-91
2022/01/04 08:04:27;;;;;;;;;;;9.50;99.90;;;;;;6214747;23;19904;-88
2022/01/04 08:06:52;;;;;;;;;;;9.50;99.90;;;;;;6212347;23;19949;-89
2022/01/04 08:09:18;;;;;;;;;;;9.60;99.90;;;;;;6210177;23;20027;-88
2022/01/04 08:11:43;;;;;;;;;;;9.50;99.90;;;;;;6211926;23;19985;-87
2022/01/04 08:14:09;;;;;;;;;;;9.50;99.90;;;;;;6209877;23;19914;-89
2022/01/04 08:16:35;;;;;;;;;;;9.40;99.90;;;;;;6210176;23;19979;-87
2022/01/04 08:19:00;;;;;;;;;;;9.50;99.90;;;;;;6210923;23;19904;-89
2022/01/04 08:21:26;;;;;;;;;;;9.50;99.90;;;;;;6211445;23;20328;-89
2022/01/04 08:23:52;;;;;;;;;;;9.40;99.90;;;;;;6209912;23;19911;-88
2022/01/04 08:26:18;;;;;;;;;;;9.40;99.90;;;;;;6210250;23;19904;-90
2022/01/04 08:28:44;;;;;;;;;;;9.30;99.90;;;;;;6211827;23;19959;-90
2022/01/04 08:31:11;;;;;;;;;;;9.40;99.90;;;;;;6210710;23;19916;-89
2022/01/04 08:33:37;;;;;;;;;;;9.40;99.90;;;;;;6211507;23;19982;-89
2022/01/04 08:36:03;;;;;;;;;;;9.40;99.90;;;;;;6210795;23;19947;-87
2022/01/04 08:38:28;;;;;;;;;;;9.40;99.90;;;;;;6210049;23;19904;-89
2022/01/04 08:40:54;;;;;;;;;;;9.40;99.90;;;;;;6209680;23;19908;-89
2022/01/04 08:43:19;;;;;;;;;;;9.40;99.90;;;;;;6213007;23;19923;-91
2022/01/04 08:45:45;;;;;;;;;;;9.50;99.90;;;;;;6212185;23;19904;-89
2022/01/04 08:48:11;;;;;;;;;;;9.50;99.90;;;;;;6211678;23;19918;-90
2022/01/04 08:50:36;;;;;;;;;;;9.50;99.90;;;;;;6211817;23;20240;-89
2022/01/04 08:53:02;;;;;;;;;;;9.60;99.90;;;;;;6213807;23;19942;-90
2022/01/04 08:55:28;;;;;;;;;;;9.70;99.90;;;;;;6210727;23;19912;-87
2022/01/04 08:57:53;;;;;;;;;;;9.70;99.90;;;;;;6211334;23;19915;-89
2022/01/04 09:00:19;;;;;;;;;;;9.70;99.90;;;;;;6211701;23;19908;-90
2022/01/04 09:02:45;;;;;;;;;;;9.70;99.90;;;;;;6212106;23;19904;-90
2022/01/04 09:05:10;;;;;;;;;;;9.80;99.90;;;;;;6213227;23;19931;-88
2022/01/04 09:07:37;;;;;;;;;;;9.80;99.90;;;;;;6214493;23;19927;-87
2022/01/04 09:10:03;;;;;;;;;;;9.90;99.90;;;;;;6215220;23;19909;-91
2022/01/04 09:12:51;;;;;;;;;;;9.90;99.90;;;;;;6213517;23;19904;-88
2022/01/04 09:15:33;;;;;;;;;;;9.90;99.90;;;;;;6210631;23;19911;-88
2022/01/04 09:20:46;;;;;;;;;;;9.90;99.90;;;;;;6211498;23;20439;-90
2022/01/04 09:23:18;;;;;;;;;;;10.00;99.90;;;;;;6210306;23;20333;-88
2022/01/04 09:25:44;;;;;;;;;;;10.00;99.90;;;;;;6209887;23;19971;-89
2022/01/04 09:28:10;;;;;;;;;;;10.10;99.90;;;;;;6212349;23;19907;-89
2022/01/04 09:30:36;;;;;;;;;;;10.00;99.90;;;;;;6212372;23;19958;-90
2022/01/04 09:33:02;;;;;;;;;;;10.00;99.90;;;;;;6210094;23;20225;-87
2022/01/04 09:35:28;;;;;;;;;;;10.00;99.90;;;;;;6210090;23;20471;-88
2022/01/04 09:37:53;;;;;;;;;;;10.10;99.90;;;;;;6212499;23;20333;-88
2022/01/04 09:40:19;;;;;;;;;;;10.10;99.90;;;;;;6210558;23;19939;-88
2022/01/04 09:42:48;;;;;;;;;;;10.10;99.90;;;;;;6210686;23;20276;-89
2022/01/04 09:45:15;;;;;;;;;;;10.10;99.90;;;;;;6210406;23;20351;-88
2022/01/04 09:47:40;;;;;;;;;;;10.10;99.90;;;;;;6210099;23;19915;-88
2022/01/04 09:50:10;;;;;;;;;;;9.90;99.90;;;;;;6210759;23;19904;-88
2022/01/04 09:52:38;;;;;;;;;;;9.90;99.90;;;;;;6210841;23;20399;-89
2022/01/04 09:55:04;;;;;;;;;;;9.90;99.90;;;;;;6211908;23;19912;-89
2022/01/04 09:57:30;;;;;;;;;;;10.00;99.90;;;;;;6210413;23;19912;-89
2022/01/04 09:59:55;;;;;;;;;;;10.00;99.90;;;;;;6212250;23;19959;-89
2022/01/04 10:02:21;;;;;;;;;;;10.10;99.90;;;;;;6212506;23;19904;-89
2022/01/04 10:04:47;;;;;;;;;;;10.10;99.90;;;;;;6212468;23;19957;-91
2022/01/04 10:07:13;;;;;;;;;;;10.20;99.90;;;;;;6210443;23;19908;-89
2022/01/04 10:09:44;;;;;;;;;;;10.20;99.90;;;;;;6216425;23;19911;-89
2022/01/04 10:12:10;;;;;;;;;;;10.10;99.90;;;;;;6215863;23;19904;-90
2022/01/04 10:14:39;;;;;;;;;;;10.10;99.90;;;;;;6214259;23;19914;-88
2022/01/04 10:17:07;;;;;;;;;;;10.20;99.90;;;;;;6213917;23;19915;-90
2022/01/04 10:19:34;;;;;;;;;;;10.20;99.90;;;;;;6212865;23;19904;-90
2022/01/04 10:22:18;;;;;;;;;;;10.30;99.90;;;;;;6214069;23;20108;-88
2022/01/04 10:24:46;;;;;;;;;;;10.30;99.90;;;;;;6213054;23;19908;-88
2022/01/04 10:27:27;;;;;;;;;;;10.40;99.90;;;;;;6218950;23;19904;-90
2022/01/04 10:30:11;;;;;;;;;;;10.40;99.90;;;;;;6230763;23;20351;-88
2022/01/04 10:32:56;;;;;;;;;;;10.40;99.90;;;;;;6235695;23;19911;-87
2022/01/04 10:35:32;;;;;;;;;;;10.50;99.90;;;;;;6224860;23;20042;-89
2022/01/04 10:38:08;;;;;;;;;;;10.40;99.90;;;;;;6215639;23;19904;-89
2022/01/04 10:40:34;;;;;;;;;;;10.30;99.90;;;;;;6212239;23;20313;-89
2022/01/04 10:43:06;;;;;;;;;;;10.30;99.90;;;;;;6214220;23;19916;-88
2022/01/04 10:45:32;;;;;;;;;;;10.30;99.90;;;;;;6212609;23;19907;-90
2022/01/04 10:48:10;;;;;;;;;;;10.40;99.90;;;;;;6216230;23;19987;-89
2022/01/04 10:50:36;;;;;;;;;;;10.30;99.90;;;;;;6212318;23;20240;-89
2022/01/04 10:53:02;;;;;;;;;;;10.30;99.90;;;;;;6212920;23;20015;-89
2022/01/04 10:55:32;;;;;;;;;;;10.30;99.90;;;;;;6212563;23;19919;-89
2022/01/04 10:57:58;;;;;;;;;;;10.20;99.90;;;;;;6215432;23;19908;-91
2022/01/04 11:00:24;;;;;;;;;;;10.20;99.90;;;;;;6215627;23;19911;-88
2022/01/04 11:02:49;;;;;;;;;;;10.20;99.90;;;;;;6214314;23;19904;-90
2022/01/04 11:05:16;;;;;;;;;;;10.20;99.90;;;;;;6215580;23;19904;-88
2022/01/04 11:07:58;;;;;;;;;;;10.20;99.90;;;;;;6215252;23;19911;-88
2022/01/04 11:10:25;;;;;;;;;;;10.20;99.90;;;;;;6214300;23;19904;-90
2022/01/04 11:12:51;;;;;;;;;;;10.30;99.90;;;;;;6214934;23;19934;-90
2022/01/04 11:15:17;;;;;;;;;;;10.20;99.90;;;;;;6217817;23;20278;-88
2022/01/04 11:17:43;;;;;;;;;;;10.30;99.90;;;;;;6214116;23;19962;-90
2022/01/04 11:20:09;;;;;;;;;;;10.30;99.90;;;;;;6216020;23;19904;-87
2022/01/04 11:22:35;;;;;;;;;;;10.40;99.90;;;;;;6215319;23;19927;-89
2022/01/04 11:25:02;;;;;;;;;;;10.40;99.90;;;;;;6216264;23;19908;-90
2022/01/04 11:27:28;;;;;;;;;;;10.40;99.90;;;;;;6215077;23;19908;-89
2022/01/04 11:29:58;;;;;;;;;;;10.30;99.90;;;;;;6213831;23;19911;-90
2022/01/04 11:32:24;;;;;;;;;;;10.40;99.90;;;;;;6215840;23;19927;-89
2022/01/04 11:34:50;;;;;;;;;;;10.40;99.90;;;;;;6216027;23;19912;-91
2022/01/04 11:37:19;;;;;;;;;;;10.30;99.90;;;;;;6217187;23;19911;-89
2022/01/04 11:39:48;;;;;;;;;;;10.30;99.90;;;;;;6216635;23;19904;-92
2022/01/04 11:42:35;;;;;;;;;;;10.30;99.90;;;;;;6216973;23;20404;-89
2022/01/04 11:45:03;;;;;;;;;;;10.30;99.90;;;;;;6215518;23;19904;-91
2022/01/04 11:47:30;;;;;;;;;;;10.20;99.90;;;;;;6216264;23;19911;-88
2022/01/04 11:50:06;;;;;;;;;;;10.20;99.90;;;;;;6221033;23;19927;-89
2022/01/04 11:52:42;;;;;;;;;;;10.10;99.90;;;;;;6218400;23;19904;-92
2022/01/04 11:55:21;;;;;;;;;;;9.80;99.90;;;;;;6214898;23;20110;-91
2022/01/04 11:57:47;;;;;;;;;;;9.70;99.90;;;;;;6216302;23;19904;-92
2022/01/04 12:00:22;;;;;;;;;;;9.60;99.90;;;;;;6213637;23;19904;-88
2022/01/04 12:03:09;;;;;;;;;;;9.50;99.90;;;;;;6211826;23;19905;-89
2022/01/04 12:05:36;;;;;;;;;;;9.40;99.90;;;;;;6211741;23;19930;-88
2022/01/04 12:08:34;;;;;;;;;;;9.30;99.90;;;;;;6214921;23;19904;-90
2022/01/04 12:11:00;;;;;;;;;;;9.30;99.90;;;;;;6116291;23;19939;-88
2022/01/04 12:13:45;;;;;;;;;;;9.30;99.90;;;;;;6218468;23;19931;-89
2022/01/04 12:16:13;;;;;;;;;;;9.30;99.90;;;;;;6215243;23;20256;-89
2022/01/04 12:18:39;;;;;;;;;;;9.30;99.90;;;;;;6214850;23;19958;-89
2022/01/04 12:21:08;;;;;;;;;;;9.20;99.90;;;;;;6216958;23;19908;-88
2022/01/04 12:23:35;;;;;;;;;;;9.20;99.90;;;;;;6221180;23;19911;-92
2022/01/04 12:26:04;;;;;;;;;;;9.20;99.90;;;;;;6215731;23;19908;-90
2022/01/04 12:28:29;;;;;;;;;;;9.10;99.90;;;;;;6216968;23;19955;-89
2022/01/04 12:31:17;;;;;;;;;;;9.20;99.90;;;;;;6217314;23;19904;-91
2022/01/04 12:33:42;;;;;;;;;;;9.20;99.90;;;;;;6217343;23;19903;-92
2022/01/04 12:36:08;;;;;;;;;;;9.20;99.90;;;;;;6214320;23;19912;-88
2022/01/04 12:38:34;;;;;;;;;;;9.30;99.90;;;;;;6215761;23;19911;-89
2022/01/04 12:41:01;;;;;;;;;;;9.30;99.90;;;;;;6214110;23;19907;-89
2022/01/04 12:43:29;;;;;;;;;;;9.50;99.90;;;;;;6198984;23;20260;-88
2022/01/04 12:45:56;;;;;;;;;;;9.60;99.90;;;;;;6210011;23;19979;-88
2022/01/04 12:48:41;;;;;;;;;;;9.70;99.20;;;;;;6210811;23;19950;-89
2022/01/04 12:51:25;;;;;;;;;;;9.70;98.70;;;;;;6179811;23;19903;-90
2022/01/04 12:53:51;;;;;;;;;;;9.70;97.40;;;;;;6211372;23;20337;-90
2022/01/04 12:56:17;;;;;;;;;;;9.60;96.00;;;;;;6211483;23;19952;-91
2022/01/04 12:58:43;;;;;;;;;;;9.50;96.80;;;;;;6214280;23;19904;-89
2022/01/04 13:01:09;;;;;;;;;;;9.50;96.30;;;;;;6222877;23;19911;-88
2022/01/04 13:03:34;;;;;;;;;;;9.40;96.20;;;;;;6235199;23;20022;-89
2022/01/04 13:06:00;;;;;;;;;;;9.40;96.30;;;;;;6230465;23;19935;-88
2022/01/04 13:08:26;;;;;;;;;;;9.40;96.60;;;;;;6219053;23;20351;-91
2022/01/04 13:11:05;;;;;;;;;;;9.40;95.40;;;;;;6217075;23;19904;-88
2022/01/04 13:13:31;;;;;;;;;;;9.40;95.90;;;;;;6211990;23;19915;-90
2022/01/04 13:16:17;;;;;;;;;;;9.40;95.80;;;;;;6217961;23;20260;-91
2022/01/04 13:18:50;;;;;;;;;;;9.40;96.50;;;;;;6218904;23;19977;-90
2022/01/04 13:21:16;;;;;;;;;;;9.40;96.40;;;;;;6212980;23;20253;-91
2022/01/04 13:23:43;;;;;;;;;;;9.40;95.40;;;;;;6213403;23;19904;-91
2022/01/04 13:26:09;;;;;;;;;;;9.30;94.80;;;;;;6216088;23;20274;-92
2022/01/04 13:28:36;;;;;;;;;;;9.20;96.70;;;;;;6218564;23;20109;-91
2022/01/04 13:31:02;;;;;;;;;;;9.30;96.40;;;;;;6214212;23;19904;-90
2022/01/04 13:33:28;;;;;;;;;;;9.20;95.40;;;;;;6215897;23;19912;-92
2022/01/04 13:35:55;;;;;;;;;;;9.20;96.60;;;;;;6211592;23;19927;-90
2022/01/04 13:38:26;;;;;;;;;;;9.20;95.20;;;;;;6213097;23;19954;-90
2022/01/04 13:40:55;;;;;;;;;;;9.20;95.70;;;;;;6213748;23;19904;-89
2022/01/04 13:43:33;;;;;;;;;;;9.20;95.40;;;;;;6214310;23;19999;-91
2022/01/04 13:46:00;;;;;;;;;;;9.20;96.10;;;;;;6209779;23;19930;-90
2022/01/04 13:48:27;;;;;;;;;;;9.20;94.60;;;;;;6211755;23;19904;-92
2022/01/04 13:50:53;;;;;;;;;;;9.20;95.50;;;;;;6209857;23;19915;-89
2022/01/04 13:53:22;;;;;;;;;;;9.30;95.00;;;;;;6213472;23;19904;-89
2022/01/04 13:55:58;;;;;;;;;;;9.30;95.60;;;;;;6214391;23;19916;-90
2022/01/04 13:58:43;;;;;;;;;;;9.40;96.50;;;;;;6213711;23;19912;-89
2022/01/04 14:01:19;;;;;;;;;;;9.50;95.20;;;;;;6215599;23;19910;-89
2022/01/04 14:03:55;;;;;;;;;;;9.50;95.20;;;;;;6214743;23;19995;-90
2022/01/04 14:06:34;;;;;;;;;;;9.50;95.50;;;;;;6211369;23;19915;-92
2022/01/04 14:09:02;;;;;;;;;;;9.50;95.30;;;;;;6212067;23;19971;-90
2022/01/04 14:11:28;;;;;;;;;;;9.50;95.70;;;;;;6214872;23;20244;-90
2022/01/04 14:13:55;;;;;;;;;;;9.50;96.10;;;;;;6213284;23;19911;-90
2022/01/04 14:16:21;;;;;;;;;;;9.50;95.20;;;;;;6211771;23;19916;-90
2022/01/04 14:19:06;;;;;;;;;;;9.40;95.80;;;;;;6211880;23;19914;-90
2022/01/04 14:21:39;;;;;;;;;;;9.30;94.80;;;;;;6213456;23;20237;-88
2022/01/04 14:24:25;;;;;;;;;;;9.20;94.50;;;;;;6213108;23;20333;-89
2022/01/04 14:26:54;;;;;;;;;;;9.20;94.10;;;;;;6182508;23;19908;-91
2022/01/04 14:29:29;;;;;;;;;;;9.20;94.80;;;;;;6210497;23;20284;-92
2022/01/04 14:32:20;;;;;;;;;;;9.20;94.00;;;;;;6212529;23;19908;-89
2022/01/04 14:34:47;;;;;;;;;;;9.20;94.50;;;;;;6209513;23;19912;-92
2022/01/04 14:37:12;;;;;;;;;;;9.20;94.20;;;;;;6214122;23;19904;-89
2022/01/04 14:39:44;;;;;;;;;;;9.10;93.70;;;;;;6210585;23;20003;-90
2022/01/04 14:42:10;;;;;;;;;;;9.10;93.10;;;;;;6213911;23;19991;-92
2022/01/04 14:44:35;;;;;;;;;;;9.00;93.30;;;;;;6212912;23;19908;-88
2022/01/04 14:47:05;;;;;;;;;;;9.10;93.40;;;;;;6213699;23;19908;-91
2022/01/04 14:49:31;;;;;;;;;;;9.00;93.00;;;;;;6211340;23;19974;-89
2022/01/04 14:51:57;;;;;;;;;;;8.90;92.20;;;;;;6211586;23;20329;-92
2022/01/04 14:54:22;;;;;;;;;;;8.80;92.90;;;;;;6212704;23;19968;-89